Time;durP1;ratioP1;P1;durP2;ratioP2;P2;SDS_P1;SDS_P2;PMS_P1;PMS_P2;Temp;Humidity;BMP_temperature;BMP_pressure;BME280_temperature;BME280_humidity;BME280_pressure;Samples;Min_cycle;Max_cycle;Signal;HPM_P1;HPM_P2
2023/07/01 00:01:39;;;;;;;5.10;2.20;;;;;;;;;;5001505;28;20038;-66
2023/07/01 00:04:04;;;;;;;4.38;1.90;;;;;;;;;;5010501;28;20095;-65
2023/07/01 00:06:30;;;;;;;6.20;1.92;;;;;;;;;;5015596;28;20033;-65
2023/07/01 00:08:55;;;;;;;4.13;1.90;;;;;;;;;;4997034;28;20089;-65
2023/07/01 00:11:21;;;;;;;2.88;1.95;;;;;;;;;;4987377;28;20042;-64
2023/07/01 00:13:47;;;;;;;4.05;1.75;;;;;;;;;;5000611;28;20049;-65
2023/07/01 00:16:16;;;;;;;2.70;1.60;;;;;;;;;;4998494;28;20103;-64
2023/07/01 00:18:42;;;;;;;3.17;1.80;;;;;;;;;;4994973;28;20045;-64
2023/07/01 00:21:08;;;;;;;3.30;1.88;;;;;;;;;;4993938;28;20045;-65
2023/07/01 00:23:34;;;;;;;3.90;2.00;;;;;;;;;;5001699;28;20034;-65
2023/07/01 00:26:00;;;;;;;4.13;2.00;;;;;;;;;;4989343;28;20500;-65
2023/07/01 00:28:25;;;;;;;3.65;1.75;;;;;;;;;;4995432;28;20068;-64
2023/07/01 00:30:50;;;;;;;4.55;1.90;;;;;;;;;;4997843;28;20041;-65
2023/07/01 00:33:16;;;;;;;5.68;1.88;;;;;;;;;;4978124;28;20055;-66
2023/07/01 00:35:41;;;;;;;2.33;2.05;;;;;;;;;;4998098;28;20034;-65
2023/07/01 00:38:06;;;;;;;2.00;1.48;;;;;;;;;;4988151;28;20429;-65
2023/07/01 00:40:32;;;;;;;5.32;2.00;;;;;;;;;;4993708;28;20038;-64
2023/07/01 00:42:57;;;;;;;4.53;1.85;;;;;;;;;;5000098;28;20076;-65
2023/07/01 00:45:23;;;;;;;2.90;1.70;;;;;;;;;;5013027;28;20083;-65
2023/07/01 00:47:48;;;;;;;2.45;1.80;;;;;;;;;;5022763;28;20106;-65
2023/07/01 00:50:14;;;;;;;4.07;1.88;;;;;;;;;;5005144;28;20041;-65
2023/07/01 00:52:41;;;;;;;3.03;1.83;;;;;;;;;;4992520;28;20125;-65
2023/07/01 00:55:08;;;;;;;3.25;1.73;;;;;;;;;;5005305;28;20046;-65
2023/07/01 00:57:34;;;;;;;3.60;1.85;;;;;;;;;;5003216;28;20507;-65
2023/07/01 01:00:11;;;;;;;2.95;1.60;;;;;;;;;;5001456;28;20042;-65
2023/07/01 01:02:55;;;;;;;2.03;1.48;;;;;;;;;;5000581;28;20034;-65
2023/07/01 01:05:47;;;;;;;3.25;1.80;;;;;;;;;;4992824;28;20121;-65
2023/07/01 01:08:30;;;;;;;4.13;1.92;;;;;;;;;;5007672;28;20037;-65
2023/07/01 01:10:59;;;;;;;2.38;1.85;;;;;;;;;;5004804;28;20029;-65
2023/07/01 01:13:27;;;;;;;2.60;1.50;;;;;;;;;;5005564;28;20033;-65
2023/07/01 01:15:53;;;;;;;4.18;1.70;;;;;;;;;;5023451;28;20045;-65
2023/07/01 01:18:19;;;;;;;3.03;1.70;;;;;;;;;;5003163;28;20119;-65
2023/07/01 01:20:48;;;;;;;5.13;2.25;;;;;;;;;;5003895;28;20939;-65
2023/07/01 01:23:23;;;;;;;3.33;1.88;;;;;;;;;;5018066;23;20060;-64
2023/07/01 01:26:06;;;;;;;4.45;1.60;;;;;;;;;;5025302;28;20099;-64
2023/07/01 01:28:36;;;;;;;2.50;1.40;;;;;;;;;;4993391;28;20684;-65
2023/07/01 01:31:02;;;;;;;5.10;1.70;;;;;;;;;;5021182;28;20045;-63
2023/07/01 01:33:28;;;;;;;4.78;1.65;;;;;;;;;;5013774;28;20037;-63
2023/07/01 01:36:10;;;;;;;2.88;1.40;;;;;;;;;;5003374;28;20501;-63
2023/07/01 01:38:39;;;;;;;1.95;1.27;;;;;;;;;;5008998;28;20128;-63
2023/07/01 01:41:13;;;;;;;5.03;1.60;;;;;;;;;;5019047;28;20060;-62
2023/07/01 01:43:58;;;;;;;4.45;1.85;;;;;;;;;;5028778;28;20029;-62
2023/07/01 01:46:25;;;;;;;5.88;1.85;;;;;;;;;;5027539;28;20126;-64
2023/07/01 01:48:55;;;;;;;3.58;1.80;;;;;;;;;;5029793;28;20033;-63
2023/07/01 01:51:22;;;;;;;5.32;1.70;;;;;;;;;;5010345;28;20030;-63
2023/07/01 01:53:49;;;;;;;2.80;2.08;;;;;;;;;;4990782;28;20467;-63
2023/07/01 01:56:15;;;;;;;2.47;1.70;;;;;;;;;;5030210;28;20041;-63
2023/07/01 01:58:40;;;;;;;3.88;1.73;;;;;;;;;;5027031;28;20060;-64
2023/07/01 02:01:06;;;;;;;5.13;2.45;;;;;;;;;;5022266;28;20107;-63
2023/07/01 02:03:31;;;;;;;4.97;1.70;;;;;;;;;;5014379;28;20083;-64
2023/07/01 02:05:57;;;;;;;3.10;1.90;;;;;;;;;;5023881;28;20064;-62
2023/07/01 02:08:22;;;;;;;2.47;1.63;;;;;;;;;;5017262;28;20037;-63
2023/07/01 02:10:47;;;;;;;6.22;1.90;;;;;;;;;;5020704;28;20037;-63
2023/07/01 02:13:13;;;;;;;2.85;1.70;;;;;;;;;;5015363;28;20038;-63
2023/07/01 02:15:38;;;;;;;2.15;1.67;;;;;;;;;;5023284;28;20138;-63
2023/07/01 02:18:03;;;;;;;5.05;2.20;;;;;;;;;;5016448;28;20040;-63
2023/07/01 02:20:29;;;;;;;2.47;1.52;;;;;;;;;;5027851;28;20082;-63
2023/07/01 02:22:55;;;;;;;2.35;1.40;;;;;;;;;;5024289;28;20037;-64
2023/07/01 02:25:20;;;;;;;6.22;1.95;;;;;;;;;;5016972;28;20037;-63
2023/07/01 02:27:46;;;;;;;2.53;1.58;;;;;;;;;;5027535;28;20085;-63
2023/07/01 02:30:11;;;;;;;2.55;1.70;;;;;;;;;;5029430;28;20033;-63
2023/07/01 02:32:36;;;;;;;3.92;1.52;;;;;;;;;;5015148;28;20516;-63
2023/07/01 02:35:02;;;;;;;5.07;1.83;;;;;;;;;;5018796;28;20052;-63
2023/07/01 02:37:27;;;;;;;2.88;1.52;;;;;;;;;;5022731;28;20040;-64
2023/07/01 02:39:53;;;;;;;6.07;1.60;;;;;;;;;;5004476;28;20041;-63
2023/07/01 02:42:21;;;;;;;2.53;1.52;;;;;;;;;;5026829;28;20037;-64
2023/07/01 02:44:47;;;;;;;4.03;1.85;;;;;;;;;;5016987;28;20151;-65
2023/07/01 02:47:13;;;;;;;3.85;2.03;;;;;;;;;;4994836;28;20041;-63
2023/07/01 02:49:40;;;;;;;1.95;1.55;;;;;;;;;;5027602;28;20048;-64
2023/07/01 02:52:08;;;;;;;3.20;1.98;;;;;;;;;;5027556;28;20043;-63
2023/07/01 02:54:34;;;;;;;4.10;1.70;;;;;;;;;;5023165;28;20080;-64
2023/07/01 02:56:59;;;;;;;1.17;1.05;;;;;;;;;;5023081;28;20029;-64
2023/07/01 02:59:25;;;;;;;2.70;1.35;;;;;;;;;;5017437;28;20029;-63
2023/07/01 03:01:51;;;;;;;3.10;1.48;;;;;;;;;;5022685;28;20065;-63
2023/07/01 03:04:16;;;;;;;3.20;1.90;;;;;;;;;;5028093;28;20060;-64
2023/07/01 03:06:41;;;;;;;2.45;1.50;;;;;;;;;;5023486;28;20128;-64
2023/07/01 03:09:07;;;;;;;2.20;1.60;;;;;;;;;;5016481;28;20029;-64
2023/07/01 03:11:35;;;;;;;2.85;1.52;;;;;;;;;;5021168;28;20025;-63
2023/07/01 03:14:01;;;;;;;2.05;1.40;;;;;;;;;;5012837;28;20207;-65
2023/07/01 03:16:27;;;;;;;5.10;3.33;;;;;;;;;;4996471;28;20075;-63
2023/07/01 03:18:52;;;;;;;4.13;1.73;;;;;;;;;;5016046;28;20057;-63
2023/07/01 03:21:17;;;;;;;2.50;1.80;;;;;;;;;;5018099;28;20061;-63
2023/07/01 03:23:43;;;;;;;8.68;3.95;;;;;;;;;;5016083;28;20726;-63
2023/07/01 03:26:08;;;;;;;4.90;3.50;;;;;;;;;;5014976;28;20029;-65
2023/07/01 03:28:33;;;;;;;6.10;3.40;;;;;;;;;;5004517;28;20584;-63
2023/07/01 03:30:59;;;;;;;8.75;3.65;;;;;;;;;;5021902;28;20061;-64
2023/07/01 03:33:25;;;;;;;8.07;3.58;;;;;;;;;;5018908;28;20177;-63
2023/07/01 03:35:50;;;;;;;4.85;2.22;;;;;;;;;;5019575;28;20065;-63
2023/07/01 03:38:15;;;;;;;5.22;3.35;;;;;;;;;;5023171;28;20037;-64
2023/07/01 03:40:41;;;;;;;6.32;2.97;;;;;;;;;;5026206;28;20044;-64
2023/07/01 03:43:06;;;;;;;4.95;3.40;;;;;;;;;;5016436;28;20144;-63
2023/07/01 03:45:31;;;;;;;2.72;1.70;;;;;;;;;;5008611;28;20049;-63
2023/07/01 03:47:57;;;;;;;3.45;2.17;;;;;;;;;;5016356;28;20540;-63
2023/07/01 03:50:22;;;;;;;3.97;2.65;;;;;;;;;;5025648;28;20039;-64
2023/07/01 03:52:48;;;;;;;2.80;1.92;;;;;;;;;;5023968;28;20033;-64
2023/07/01 03:55:14;;;;;;;1.63;1.20;;;;;;;;;;5021649;28;20092;-64
2023/07/01 03:57:39;;;;;;;1.65;1.27;;;;;;;;;;5004772;28;20045;-64
2023/07/01 04:00:17;;;;;;;4.75;2.67;;;;;;;;;;5021330;28;20041;-64
2023/07/01 04:02:43;;;;;;;2.53;1.48;;;;;;;;;;5022818;28;20041;-65
2023/07/01 04:05:11;;;;;;;4.60;2.42;;;;;;;;;;5022710;28;20045;-64
2023/07/01 04:07:40;;;;;;;8.95;3.40;;;;;;;;;;5022053;28;20033;-64
2023/07/01 04:10:07;;;;;;;4.40;2.95;;;;;;;;;;4993945;28;20033;-65
2023/07/01 04:12:33;;;;;;;2.65;1.77;;;;;;;;;;5009416;28;20161;-66
2023/07/01 04:14:59;;;;;;;7.47;3.17;;;;;;;;;;5012399;28;20568;-64
2023/07/01 04:17:24;;;;;;;5.70;3.20;;;;;;;;;;5016482;28;21882;-64
2023/07/01 04:19:50;;;;;;;6.53;3.30;;;;;;;;;;5015640;28;20073;-64
2023/07/01 04:22:15;;;;;;;2.60;1.50;;;;;;;;;;5020735;28;20044;-65
2023/07/01 04:24:41;;;;;;;3.60;2.47;;;;;;;;;;5017336;28;20058;-63
2023/07/01 04:27:06;;;;;;;3.88;3.00;;;;;;;;;;5026011;28;20045;-64
2023/07/01 04:29:31;;;;;;;5.57;3.00;;;;;;;;;;5026522;28;20191;-64
2023/07/01 04:31:57;;;;;;;7.93;3.83;;;;;;;;;;5016513;28;20115;-63
2023/07/01 04:34:22;;;;;;;3.17;2.72;;;;;;;;;;5025497;28;20048;-64
2023/07/01 04:36:47;;;;;;;5.10;2.10;;;;;;;;;;5016329;28;20033;-63
2023/07/01 04:39:14;;;;;;;5.97;2.78;;;;;;;;;;5017340;28;20127;-63
2023/07/01 04:41:39;;;;;;;4.55;2.40;;;;;;;;;;5000128;28;20046;-64
2023/07/01 04:44:05;;;;;;;2.13;1.75;;;;;;;;;;5006449;28;20113;-63
2023/07/01 04:46:32;;;;;;;2.45;1.30;;;;;;;;;;5019123;28;20040;-63
2023/07/01 04:48:59;;;;;;;2.72;1.80;;;;;;;;;;5028421;28;20649;-65
2023/07/01 04:51:25;;;;;;;4.38;2.03;;;;;;;;;;5000668;28;20042;-64
2023/07/01 04:53:50;;;;;;;3.70;1.98;;;;;;;;;;5014447;28;20116;-63
2023/07/01 04:56:16;;;;;;;3.60;2.72;;;;;;;;;;5020443;28;20557;-65
2023/07/01 04:58:41;;;;;;;5.20;3.50;;;;;;;;;;5022525;28;20040;-64
2023/07/01 05:01:07;;;;;;;3.70;2.95;;;;;;;;;;5023729;28;20124;-65
2023/07/01 05:03:32;;;;;;;6.85;3.95;;;;;;;;;;5016713;28;20034;-64
2023/07/01 05:05:58;;;;;;;3.42;2.67;;;;;;;;;;5009213;28;20064;-63
2023/07/01 05:08:23;;;;;;;2.45;1.40;;;;;;;;;;5005755;28;20136;-64
2023/07/01 05:10:49;;;;;;;7.47;5.53;;;;;;;;;;5010578;28;20038;-64
2023/07/01 05:13:14;;;;;;;6.15;3.83;;;;;;;;;;5010728;28;20516;-63
2023/07/01 05:15:40;;;;;;;4.30;3.78;;;;;;;;;;5016091;28;20037;-64
2023/07/01 05:18:06;;;;;;;4.68;3.22;;;;;;;;;;5014700;28;20036;-63
2023/07/01 05:20:31;;;;;;;4.88;3.35;;;;;;;;;;5005792;28;20056;-63
2023/07/01 05:22:57;;;;;;;5.25;3.92;;;;;;;;;;5023107;28;20477;-64
2023/07/01 05:25:22;;;;;;;6.45;3.90;;;;;;;;;;4997643;28;20077;-65
2023/07/01 05:27:47;;;;;;;4.80;3.38;;;;;;;;;;5014789;28;20654;-64
2023/07/01 05:30:13;;;;;;;4.45;3.40;;;;;;;;;;5025009;28;20052;-64
2023/07/01 05:32:39;;;;;;;7.10;3.83;;;;;;;;;;5020781;28;20037;-63
2023/07/01 05:35:04;;;;;;;3.85;3.08;;;;;;;;;;5011632;28;20442;-64
2023/07/01 05:37:30;;;;;;;2.55;1.58;;;;;;;;;;5015886;28;20203;-63
2023/07/01 05:39:56;;;;;;;4.70;3.50;;;;;;;;;;5010279;28;20122;-65
2023/07/01 05:42:22;;;;;;;5.30;3.60;;;;;;;;;;5009344;28;20595;-63
2023/07/01 05:44:48;;;;;;;3.30;2.45;;;;;;;;;;5016160;28;20448;-64
2023/07/01 05:47:13;;;;;;;6.40;3.72;;;;;;;;;;5009712;28;20069;-63
2023/07/01 05:49:38;;;;;;;3.13;2.80;;;;;;;;;;5018669;28;20044;-64
2023/07/01 05:52:04;;;;;;;4.15;3.45;;;;;;;;;;5022807;28;20090;-64
2023/07/01 05:54:29;;;;;;;6.30;3.80;;;;;;;;;;5022481;28;20125;-63
2023/07/01 05:56:55;;;;;;;5.97;3.17;;;;;;;;;;5019556;28;20048;-63
2023/07/01 05:59:20;;;;;;;4.93;3.85;;;;;;;;;;5018481;28;20068;-63
2023/07/01 06:01:46;;;;;;;4.80;3.50;;;;;;;;;;5011759;28;20045;-64
2023/07/01 06:04:11;;;;;;;2.55;1.73;;;;;;;;;;5019528;28;20045;-63
2023/07/01 06:06:38;;;;;;;4.32;3.20;;;;;;;;;;5022819;28;20037;-63
2023/07/01 06:09:04;;;;;;;5.20;3.53;;;;;;;;;;5020186;28;20064;-64
2023/07/01 06:11:30;;;;;;;3.22;2.40;;;;;;;;;;5020521;28;20037;-63
2023/07/01 06:13:55;;;;;;;5.15;3.33;;;;;;;;;;5025165;28;20044;-63
2023/07/01 06:16:20;;;;;;;3.70;2.40;;;;;;;;;;5019102;28;20052;-64
2023/07/01 06:18:46;;;;;;;4.05;3.10;;;;;;;;;;5020419;28;20047;-63
2023/07/01 06:21:11;;;;;;;4.97;3.08;;;;;;;;;;5017049;28;20049;-63
2023/07/01 06:23:37;;;;;;;3.85;2.22;;;;;;;;;;5027846;28;20066;-63
2023/07/01 06:26:03;;;;;;;4.55;2.60;;;;;;;;;;5013710;28;20033;-63
2023/07/01 06:28:29;;;;;;;5.95;3.45;;;;;;;;;;5031775;28;20025;-63
2023/07/01 06:30:54;;;;;;;2.42;2.05;;;;;;;;;;4997172;28;20415;-64
2023/07/01 06:33:20;;;;;;;2.40;1.70;;;;;;;;;;5021967;28;20598;-65
2023/07/01 06:35:45;;;;;;;4.45;2.72;;;;;;;;;;5032061;28;20033;-63
2023/07/01 06:38:11;;;;;;;4.50;3.05;;;;;;;;;;5024477;28;20037;-64
2023/07/01 06:40:36;;;;;;;4.35;2.65;;;;;;;;;;5021972;28;20409;-65
2023/07/01 06:43:04;;;;;;;2.22;1.75;;;;;;;;;;5014719;28;20037;-63
2023/07/01 06:45:31;;;;;;;4.50;2.72;;;;;;;;;;5008456;28;20048;-63
2023/07/01 06:47:57;;;;;;;3.17;2.25;;;;;;;;;;5024008;28;20530;-63
2023/07/01 06:50:22;;;;;;;4.50;2.78;;;;;;;;;;5019610;28;20052;-63
2023/07/01 06:52:48;;;;;;;4.30;2.25;;;;;;;;;;5019197;28;20120;-65
2023/07/01 06:55:14;;;;;;;2.33;1.50;;;;;;;;;;5016806;28;20560;-65
2023/07/01 06:57:40;;;;;;;3.53;2.22;;;;;;;;;;5008216;28;20037;-64
2023/07/01 07:00:09;;;;;;;4.45;2.67;;;;;;;;;;5022973;28;20547;-64
2023/07/01 07:02:34;;;;;;;5.30;3.22;;;;;;;;;;5023209;28;20045;-65
2023/07/01 07:05:00;;;;;;;2.35;1.73;;;;;;;;;;5016478;28;20041;-65
2023/07/01 07:07:25;;;;;;;3.65;2.63;;;;;;;;;;5025588;28;20139;-64
2023/07/01 07:09:51;;;;;;;3.63;2.88;;;;;;;;;;5027088;28;20029;-64
2023/07/01 07:12:16;;;;;;;4.28;2.60;;;;;;;;;;5013774;28;20060;-65
2023/07/01 07:14:41;;;;;;;3.38;2.70;;;;;;;;;;5019484;28;20045;-64
2023/07/01 07:17:07;;;;;;;4.82;2.67;;;;;;;;;;5017423;28;20052;-65
2023/07/01 07:19:33;;;;;;;3.70;2.63;;;;;;;;;;5025670;28;20575;-63
2023/07/01 07:21:58;;;;;;;3.50;3.00;;;;;;;;;;5026173;28;20048;-65
2023/07/01 07:24:23;;;;;;;1.63;1.50;;;;;;;;;;5027622;22;20042;-65
2023/07/01 07:27:00;;;;;;;1.85;1.35;;;;;;;;;;4990001;28;20041;-64
2023/07/01 07:29:27;;;;;;;2.70;2.25;;;;;;;;;;5002833;28;20167;-65
2023/07/01 07:31:52;;;;;;;3.92;2.60;;;;;;;;;;5000239;28;20141;-64
2023/07/01 07:34:18;;;;;;;3.75;2.40;;;;;;;;;;5000831;28;20133;-64
2023/07/01 07:36:43;;;;;;;5.20;2.53;;;;;;;;;;5002771;28;20037;-65
2023/07/01 07:39:14;;;;;;;4.55;2.03;;;;;;;;;;4989828;28;20608;-65
2023/07/01 07:41:41;;;;;;;2.13;1.73;;;;;;;;;;5001592;28;20038;-65
2023/07/01 07:44:06;;;;;;;3.85;2.75;;;;;;;;;;5000430;28;20208;-65
2023/07/01 07:46:33;;;;;;;2.70;2.45;;;;;;;;;;4999362;28;20161;-65
2023/07/01 07:48:58;;;;;;;4.55;2.85;;;;;;;;;;4999992;28;20113;-67
2023/07/01 07:51:24;;;;;;;3.45;2.17;;;;;;;;;;4998768;28;20180;-66
2023/07/01 07:53:49;;;;;;;1.73;1.63;;;;;;;;;;4988957;28;20046;-66
2023/07/01 07:56:14;;;;;;;5.65;2.80;;;;;;;;;;5006314;28;20037;-67
2023/07/01 07:58:40;;;;;;;5.00;2.40;;;;;;;;;;4998375;28;20578;-66
2023/07/01 08:01:05;;;;;;;4.90;2.60;;;;;;;;;;4999843;28;20045;-66
2023/07/01 08:03:31;;;;;;;2.97;2.00;;;;;;;;;;5002944;28;20056;-65
2023/07/01 08:05:56;;;;;;;1.15;0.82;;;;;;;;;;5006776;28;20038;-65
2023/07/01 08:08:21;;;;;;;4.57;2.25;;;;;;;;;;4996834;28;20074;-65
2023/07/01 08:10:47;;;;;;;3.28;2.30;;;;;;;;;;4994888;28;20060;-65
2023/07/01 08:13:13;;;;;;;5.03;2.25;;;;;;;;;;4996593;28;20030;-65
2023/07/01 08:15:40;;;;;;;3.50;2.20;;;;;;;;;;4996542;28;20038;-65
2023/07/01 08:18:06;;;;;;;2.70;2.00;;;;;;;;;;5001031;28;20037;-65
2023/07/01 08:20:31;;;;;;;2.67;1.73;;;;;;;;;;4992944;28;20129;-65
2023/07/01 08:22:56;;;;;;;4.25;2.28;;;;;;;;;;4995378;28;20077;-65
2023/07/01 08:25:22;;;;;;;3.88;1.83;;;;;;;;;;4998476;28;20034;-65
2023/07/01 08:27:47;;;;;;;3.40;2.03;;;;;;;;;;4998374;28;20421;-64
2023/07/01 08:30:12;;;;;;;2.28;1.60;;;;;;;;;;4994619;28;20096;-68
2023/07/01 08:32:39;;;;;;;4.15;1.90;;;;;;;;;;5003575;28;20037;-65
2023/07/01 08:35:06;;;;;;;3.17;2.00;;;;;;;;;;4987196;28;20736;-64
2023/07/01 08:37:31;;;;;;;3.97;2.10;;;;;;;;;;5002131;28;20042;-65
2023/07/01 08:39:56;;;;;;;3.33;1.90;;;;;;;;;;4981195;28;20046;-64
2023/07/01 08:42:35;;;;;;;3.10;2.38;;;;;;;;;;4994612;28;20084;-65
2023/07/01 08:45:02;;;;;;;3.55;2.00;;;;;;;;;;4990802;28;20103;-65
2023/07/01 08:47:28;;;;;;;3.05;2.10;;;;;;;;;;4991426;28;20105;-65
2023/07/01 08:49:57;;;;;;;5.80;1.98;;;;;;;;;;5007408;28;20374;-65
2023/07/01 08:52:28;;;;;;;5.65;2.03;;;;;;;;;;4998108;28;20414;-65
2023/07/01 08:54:54;;;;;;;2.85;1.70;;;;;;;;;;4997188;28;20395;-64
2023/07/01 08:57:19;;;;;;;3.15;1.70;;;;;;;;;;4991474;28;20049;-65
2023/07/01 08:59:47;;;;;;;2.22;1.42;;;;;;;;;;5003186;28;20521;-64
2023/07/01 09:02:13;;;;;;;2.50;1.40;;;;;;;;;;4984988;28;20034;-64
2023/07/01 09:04:40;;;;;;;3.53;1.90;;;;;;;;;;5003156;28;20161;-64
2023/07/01 09:07:06;;;;;;;2.28;1.52;;;;;;;;;;4983679;28;20037;-65
2023/07/01 09:09:31;;;;;;;2.55;1.77;;;;;;;;;;5009183;28;20038;-64
2023/07/01 09:11:56;;;;;;;2.78;1.50;;;;;;;;;;5003844;28;20946;-65
2023/07/01 09:14:22;;;;;;;3.53;1.52;;;;;;;;;;4995984;28;20034;-64
2023/07/01 09:16:47;;;;;;;3.13;1.65;;;;;;;;;;4987105;28;20116;-64
2023/07/01 09:19:22;;;;;;;2.20;1.10;;;;;;;;;;5005526;28;20041;-64
2023/07/01 09:21:47;;;;;;;4.50;1.88;;;;;;;;;;5005339;28;20053;-65
2023/07/01 09:24:13;;;;;;;3.17;1.38;;;;;;;;;;5003363;28;20046;-65
2023/07/01 09:26:39;;;;;;;2.25;1.30;;;;;;;;;;4997541;28;20033;-64
2023/07/01 09:29:09;;;;;;;1.70;0.95;;;;;;;;;;4986922;28;20030;-65
2023/07/01 09:31:48;;;;;;;2.45;1.00;;;;;;;;;;5006245;28;20069;-66
2023/07/01 09:34:15;;;;;;;3.40;1.40;;;;;;;;;;4984218;28;20041;-65
2023/07/01 09:36:40;;;;;;;3.30;1.60;;;;;;;;;;4996116;28;20512;-65
2023/07/01 09:39:05;;;;;;;6.00;1.73;;;;;;;;;;5001652;28;20157;-65
2023/07/01 09:41:31;;;;;;;2.13;1.38;;;;;;;;;;4992638;28;20131;-65
2023/07/01 09:43:58;;;;;;;3.08;1.17;;;;;;;;;;5002199;28;20046;-65
2023/07/01 09:46:24;;;;;;;2.15;1.15;;;;;;;;;;4984319;28;20103;-65
2023/07/01 09:48:53;;;;;;;3.08;1.55;;;;;;;;;;5000625;28;20971;-65
2023/07/01 09:51:21;;;;;;;2.63;1.70;;;;;;;;;;4981333;28;20121;-65
2023/07/01 09:53:47;;;;;;;6.18;1.88;;;;;;;;;;4994849;28;20120;-65
2023/07/01 09:56:16;;;;;;;3.42;1.60;;;;;;;;;;5002918;28;20045;-65
2023/07/01 09:58:43;;;;;;;3.80;1.73;;;;;;;;;;4998567;28;20037;-65
2023/07/01 10:01:11;;;;;;;3.15;1.58;;;;;;;;;;5005660;28;20041;-65
2023/07/01 10:03:37;;;;;;;4.10;1.40;;;;;;;;;;5005717;28;20464;-65
2023/07/01 10:06:02;;;;;;;3.33;1.60;;;;;;;;;;5002466;28;20065;-65
2023/07/01 10:08:28;;;;;;;2.10;1.40;;;;;;;;;;4995122;28;20065;-65
2023/07/01 10:11:25;;;;;;;3.50;1.63;;;;;;;;;;4998411;28;20140;-65
2023/07/01 10:13:53;;;;;;;3.63;1.73;;;;;;;;;;4996908;28;20029;-65
2023/07/01 10:16:19;;;;;;;2.17;1.30;;;;;;;;;;4981979;28;20057;-65
2023/07/01 10:18:45;;;;;;;2.85;1.77;;;;;;;;;;4986785;28;20041;-65
2023/07/01 10:21:22;;;;;;;1.98;1.52;;;;;;;;;;4982156;28;20129;-65
2023/07/01 10:23:48;;;;;;;3.28;1.60;;;;;;;;;;4980698;28;20574;-65
2023/07/01 10:26:43;;;;;;;4.03;1.83;;;;;;;;;;5001914;28;20144;-65
2023/07/01 10:29:27;;;;;;;3.78;2.22;;;;;;;;;;4985789;28;20026;-65
2023/07/01 10:32:08;;;;;;;3.53;2.45;;;;;;;;;;5001788;28;20118;-65
2023/07/01 10:35:05;;;;;;;3.97;1.90;;;;;;;;;;4992345;28;20045;-65
2023/07/01 10:37:34;;;;;;;2.80;1.60;;;;;;;;;;4953495;28;20033;-66
2023/07/01 10:40:08;;;;;;;3.00;1.58;;;;;;;;;;4984984;28;20053;-65
2023/07/01 10:42:35;;;;;;;3.97;1.80;;;;;;;;;;4992961;28;20038;-65
2023/07/01 10:45:12;;;;;;;2.90;1.67;;;;;;;;;;4996941;28;20040;-65
2023/07/01 10:47:38;;;;;;;3.42;2.00;;;;;;;;;;4990497;28;20041;-65
2023/07/01 10:50:05;;;;;;;3.80;1.67;;;;;;;;;;4999230;28;20433;-65
2023/07/01 10:52:32;;;;;;;4.32;1.80;;;;;;;;;;4998002;28;20036;-65
2023/07/01 10:55:00;;;;;;;4.13;1.98;;;;;;;;;;4999927;28;20038;-64
2023/07/01 10:57:26;;;;;;;6.10;2.00;;;;;;;;;;4996844;28;20033;-65
2023/07/01 11:00:30;;;;;;;3.33;1.80;;;;;;;;;;4998208;28;20029;-65
2023/07/01 11:02:55;;;;;;;3.05;1.75;;;;;;;;;;4971092;28;20070;-65
2023/07/01 11:05:21;;;;;;;3.63;1.88;;;;;;;;;;5003519;28;20030;-65
2023/07/01 11:07:47;;;;;;;3.75;1.80;;;;;;;;;;4998297;28;20088;-66
2023/07/01 11:10:12;;;;;;;3.20;1.65;;;;;;;;;;4999112;28;20037;-65
2023/07/01 11:12:39;;;;;;;3.45;2.05;;;;;;;;;;4999841;28;20034;-65
2023/07/01 11:15:05;;;;;;;3.10;1.90;;;;;;;;;;4987472;28;20041;-65
2023/07/01 11:17:30;;;;;;;4.32;1.88;;;;;;;;;;4970018;28;20046;-66
2023/07/01 11:19:57;;;;;;;3.20;1.83;;;;;;;;;;4998619;28;20069;-65
2023/07/01 11:22:23;;;;;;;4.18;1.90;;;;;;;;;;4998158;28;20049;-65
2023/07/01 11:24:48;;;;;;;4.40;1.92;;;;;;;;;;5000156;28;20124;-65
2023/07/01 11:27:16;;;;;;;4.53;1.90;;;;;;;;;;5001109;28;20521;-66
2023/07/01 11:29:44;;;;;;;5.65;2.20;;;;;;;;;;4999287;28;20025;-65
2023/07/01 11:32:14;;;;;;;2.97;1.88;;;;;;;;;;4979944;28;20047;-65
2023/07/01 11:34:41;;;;;;;3.70;2.00;;;;;;;;;;4998087;28;20042;-65
2023/07/01 11:37:06;;;;;;;7.28;2.10;;;;;;;;;;5005508;28;20041;-65
2023/07/01 11:39:32;;;;;;;3.95;2.00;;;;;;;;;;4996707;28;20069;-66
2023/07/01 11:42:00;;;;;;;4.40;2.22;;;;;;;;;;5004034;28;20510;-66
2023/07/01 11:44:33;;;;;;;4.05;1.70;;;;;;;;;;4988132;28;20586;-65
2023/07/01 11:46:58;;;;;;;3.80;1.95;;;;;;;;;;5005564;28;20450;-65
2023/07/01 11:49:30;;;;;;;5.72;1.90;;;;;;;;;;4999029;28;20088;-65
2023/07/01 11:52:01;;;;;;;3.08;1.85;;;;;;;;;;4999455;28;20402;-65
2023/07/01 11:54:41;;;;;;;4.72;2.40;;;;;;;;;;4999710;28;20046;-65
2023/07/01 11:57:15;;;;;;;3.13;1.63;;;;;;;;;;4976150;28;20839;-65
2023/07/01 11:59:42;;;;;;;7.93;2.67;;;;;;;;;;5003540;28;20159;-65
2023/07/01 12:02:08;;;;;;;2.20;1.45;;;;;;;;;;4998944;28;20037;-65
2023/07/01 12:04:35;;;;;;;2.92;1.60;;;;;;;;;;4983070;28;20038;-65
2023/07/01 12:07:17;;;;;;;4.55;1.67;;;;;;;;;;5001442;28;20386;-64
2023/07/01 12:09:47;;;;;;;3.72;1.70;;;;;;;;;;4998902;28;20022;-65
2023/07/01 12:12:34;;;;;;;3.80;1.60;;;;;;;;;;4989084;28;20028;-66
2023/07/01 12:15:04;;;;;;;3.50;1.60;;;;;;;;;;4989185;28;20441;-65
2023/07/01 12:17:30;;;;;;;3.72;1.73;;;;;;;;;;4988909;28;20054;-66
2023/07/01 12:19:58;;;;;;;3.88;1.90;;;;;;;;;;4990451;28;20049;-66
2023/07/01 12:22:24;;;;;;;3.53;1.50;;;;;;;;;;4991974;28;20500;-65
2023/07/01 12:24:54;;;;;;;3.53;1.70;;;;;;;;;;4987382;28;20061;-66
2023/07/01 12:27:20;;;;;;;3.97;2.10;;;;;;;;;;4994306;28;20089;-66
2023/07/01 12:29:45;;;;;;;4.40;1.77;;;;;;;;;;4990335;28;20026;-66
2023/07/01 12:32:11;;;;;;;3.08;1.70;;;;;;;;;;4994397;28;20022;-65
2023/07/01 12:34:36;;;;;;;3.78;2.15;;;;;;;;;;4989650;28;20050;-65
2023/07/01 12:37:02;;;;;;;3.08;1.65;;;;;;;;;;4991892;28;20649;-65
2023/07/01 12:39:30;;;;;;;3.30;2.03;;;;;;;;;;4990634;28;20038;-66
2023/07/01 12:41:58;;;;;;;5.25;2.00;;;;;;;;;;4999825;28;20529;-66
2023/07/01 12:44:23;;;;;;;2.60;1.67;;;;;;;;;;4987527;28;20493;-66
2023/07/01 12:46:49;;;;;;;3.42;1.63;;;;;;;;;;4989512;28;20034;-66
2023/07/01 12:49:14;;;;;;;3.72;2.97;;;;;;;;;;4996837;28;20076;-65
2023/07/01 12:51:42;;;;;;;2.53;1.45;;;;;;;;;;4992268;28;20570;-65
2023/07/01 12:54:07;;;;;;;2.38;1.75;;;;;;;;;;4988944;28;20030;-66
2023/07/01 12:56:33;;;;;;;4.40;1.67;;;;;;;;;;4987154;28;20091;-66
2023/07/01 12:58:58;;;;;;;3.70;1.50;;;;;;;;;;4989052;28;20014;-66
2023/07/01 13:01:24;;;;;;;3.95;1.60;;;;;;;;;;4991340;28;20034;-66
2023/07/01 13:03:49;;;;;;;4.45;1.42;;;;;;;;;;4982923;28;20041;-66
2023/07/01 13:06:24;;;;;;;4.55;1.63;;;;;;;;;;4987358;28;20065;-65
2023/07/01 13:08:50;;;;;;;3.13;1.55;;;;;;;;;;4987329;28;20045;-65
2023/07/01 13:11:16;;;;;;;2.15;1.40;;;;;;;;;;4992267;28;20505;-66
2023/07/01 13:13:42;;;;;;;3.92;1.70;;;;;;;;;;4992346;28;20041;-65
2023/07/01 13:16:28;;;;;;;2.58;1.40;;;;;;;;;;4996011;28;20513;-65
2023/07/01 13:18:55;;;;;;;5.13;2.15;;;;;;;;;;4988262;28;20034;-65
2023/07/01 13:21:21;;;;;;;2.45;1.45;;;;;;;;;;4987713;28;20058;-65
2023/07/01 13:23:52;;;;;;;2.45;1.67;;;;;;;;;;4990414;28;20060;-66
2023/07/01 13:26:18;;;;;;;2.53;1.48;;;;;;;;;;4989138;28;20500;-65
2023/07/01 13:28:44;;;;;;;3.80;1.40;;;;;;;;;;4993939;28;20060;-66
2023/07/01 13:31:19;;;;;;;2.35;1.25;;;;;;;;;;4989157;28;20030;-66
2023/07/01 13:33:47;;;;;;;1.65;1.10;;;;;;;;;;4986808;28;20021;-66
2023/07/01 13:36:17;;;;;;;1.98;1.15;;;;;;;;;;4993398;28;20080;-65
2023/07/01 13:38:42;;;;;;;1.98;1.30;;;;;;;;;;4984985;28;20077;-65
2023/07/01 13:41:07;;;;;;;2.03;1.27;;;;;;;;;;4989762;28;20026;-65
2023/07/01 13:43:34;;;;;;;3.28;1.65;;;;;;;;;;4984914;28;20030;-66
2023/07/01 13:45:59;;;;;;;4.47;1.40;;;;;;;;;;4982960;28;20030;-66
2023/07/01 13:48:27;;;;;;;2.55;1.33;;;;;;;;;;4992777;28;20524;-65
2023/07/01 13:50:54;;;;;;;2.47;1.77;;;;;;;;;;4991092;28;20072;-65
2023/07/01 13:53:22;;;;;;;3.28;1.98;;;;;;;;;;4989080;28;20035;-65
2023/07/01 13:55:49;;;;;;;2.22;1.40;;;;;;;;;;4994615;28;20486;-66
2023/07/01 13:58:15;;;;;;;2.75;1.25;;;;;;;;;;4994163;28;20121;-66
2023/07/01 14:00:46;;;;;;;4.10;1.80;;;;;;;;;;4993647;28;20105;-66
2023/07/01 14:03:21;;;;;;;1.80;1.25;;;;;;;;;;4993246;28;20030;-66
2023/07/01 14:05:48;;;;;;;1.77;1.38;;;;;;;;;;4997417;28;20025;-67
2023/07/01 14:08:14;;;;;;;2.03;1.42;;;;;;;;;;4996756;28;20491;-66
2023/07/01 14:10:40;;;;;;;1.77;0.90;;;;;;;;;;4999385;28;20044;-66
2023/07/01 14:13:11;;;;;;;3.97;1.58;;;;;;;;;;4991849;28;20030;-66
2023/07/01 14:15:36;;;;;;;2.45;1.40;;;;;;;;;;4996200;28;20019;-65
2023/07/01 14:18:17;;;;;;;3.35;1.80;;;;;;;;;;4995582;28;20463;-65
2023/07/01 14:20:51;;;;;;;2.65;1.70;;;;;;;;;;4983202;28;20846;-66
2023/07/01 14:23:28;;;;;;;2.30;1.58;;;;;;;;;;4986919;28;20667;-66
2023/07/01 14:25:53;;;;;;;3.40;1.73;;;;;;;;;;4991265;28;20041;-66
2023/07/01 14:28:25;;;;;;;3.00;1.63;;;;;;;;;;4993286;28;20022;-65
2023/07/01 14:31:03;;;;;;;2.40;1.60;;;;;;;;;;4995182;28;20375;-65
2023/07/01 14:33:51;;;;;;;2.80;1.40;;;;;;;;;;4987705;28;20033;-66
2023/07/01 14:36:24;;;;;;;5.03;1.90;;;;;;;;;;4986935;28;20014;-65
2023/07/01 14:38:50;;;;;;;2.50;1.60;;;;;;;;;;4993456;28;20022;-65
2023/07/01 14:41:27;;;;;;;2.58;1.42;;;;;;;;;;4992605;28;20149;-65
2023/07/01 14:43:58;;;;;;;3.67;1.50;;;;;;;;;;4987916;28;20545;-66
2023/07/01 14:46:28;;;;;;;3.25;1.55;;;;;;;;;;4991346;28;20027;-66